createdAt,value
2022-08-01T00:00:23.038Z,21.57
2022-08-01T00:03:12.254Z,21.60
2022-08-01T00:05:53.997Z,21.70
2022-08-01T00:08:44.058Z,21.69
2022-08-01T00:11:33.025Z,21.57
2022-08-01T00:14:22.127Z,21.50
2022-08-01T00:17:15.678Z,21.35
2022-08-01T00:20:04.472Z,21.36
2022-08-01T00:22:58.788Z,21.38
2022-08-01T00:25:47.142Z,21.52
2022-08-01T00:28:29.025Z,21.61
2022-08-01T00:31:16.722Z,21.58
2022-08-01T00:33:59.313Z,21.43
2022-08-01T00:36:47.723Z,21.48
2022-08-01T00:39:28.932Z,21.46
2022-08-01T00:42:19.214Z,21.52
2022-08-01T00:45:00.011Z,21.49
2022-08-01T00:47:48.193Z,21.51
2022-08-01T00:50:36.807Z,21.53
2022-08-01T00:53:24.923Z,21.61
2022-08-01T00:56:07.036Z,21.70
2022-08-01T00:58:55.222Z,21.51
2022-08-01T01:01:39.624Z,21.48
2022-08-01T01:04:27.236Z,21.46
2022-08-01T01:07:17.807Z,21.51
2022-08-01T01:10:29.168Z,21.48
2022-08-01T01:13:20.452Z,21.47
2022-08-01T01:16:13.202Z,21.55
2022-08-01T01:19:08.073Z,21.47
2022-08-01T01:22:30.051Z,21.55
2022-08-01T01:25:45.212Z,21.58
2022-08-01T01:28:42.714Z,21.52
2022-08-01T01:31:33.902Z,21.40
2022-08-01T01:34:19.212Z,21.40
2022-08-01T01:37:09.451Z,21.57
2022-08-01T01:39:54.618Z,21.39
2022-08-01T01:42:43.115Z,21.38
2022-08-01T01:45:26.207Z,21.39
2022-08-01T01:48:15.051Z,21.61
2022-08-01T01:50:59.229Z,21.59
2022-08-01T01:53:49.857Z,21.55
2022-08-01T01:56:33.212Z,21.40
2022-08-01T01:59:29.072Z,21.30
2022-08-01T02:02:15.813Z,21.23
2022-08-01T02:05:06.582Z,21.35
2022-08-01T02:07:49.224Z,21.36
2022-08-01T02:10:39.103Z,21.23
2022-08-01T02:13:21.334Z,21.36
2022-08-01T02:16:11.096Z,21.19
2022-08-01T02:18:52.279Z,21.09
2022-08-01T02:21:47.120Z,21.13
2022-08-01T02:24:48.913Z,21.14
2022-08-01T02:27:37.211Z,21.22
2022-08-01T02:30:25.232Z,21.29
2022-08-01T02:33:15.830Z,21.20
2022-08-01T02:36:32.083Z,21.20
2022-08-01T02:39:12.130Z,21.19
2022-08-01T02:42:05.434Z,21.05
2022-08-01T02:44:53.125Z,21.15
2022-08-01T02:47:45.604Z,21.10
2022-08-01T02:50:27.138Z,21.22
2022-08-01T02:53:17.194Z,21.12
2022-08-01T02:56:01.131Z,21.09
2022-08-01T02:58:51.417Z,21.04
2022-08-01T03:01:34.125Z,21.05
2022-08-01T03:04:26.232Z,21.10
2022-08-01T03:07:10.127Z,21.07
2022-08-01T03:09:59.256Z,21.04
2022-08-01T03:12:42.144Z,21.09
2022-08-01T03:15:32.244Z,21.08
2022-08-01T03:18:16.518Z,21.11
2022-08-01T03:21:05.361Z,21.12
2022-08-01T03:23:57.129Z,21.21
2022-08-01T03:26:41.320Z,21.25
2022-08-01T03:29:32.503Z,21.16
2022-08-01T03:32:15.933Z,21.31
2022-08-01T03:35:06.607Z,21.26
2022-08-01T03:38:17.520Z,21.28
2022-08-01T03:41:06.163Z,21.01
2022-08-01T03:44:04.781Z,20.89
2022-08-01T03:46:56.437Z,20.86
2022-08-01T03:49:41.811Z,20.79
2022-08-01T03:52:30.911Z,20.73
2022-08-01T03:55:16.043Z,20.75
2022-08-01T03:58:07.134Z,20.76
2022-08-01T04:00:50.310Z,20.86
2022-08-01T04:03:41.889Z,20.64
2022-08-01T04:06:24.656Z,20.81
2022-08-01T04:09:14.070Z,20.85
2022-08-01T04:11:55.247Z,20.86
2022-08-01T04:14:42.204Z,20.76
2022-08-01T04:17:24.343Z,20.78
2022-08-01T04:20:12.590Z,20.70
2022-08-01T04:23:06.148Z,20.69
2022-08-01T04:25:55.145Z,20.73
2022-08-01T04:28:40.872Z,20.64
2022-08-01T04:31:33.153Z,20.73
2022-08-01T04:34:14.303Z,20.64
2022-08-01T04:37:03.193Z,20.64
2022-08-01T04:39:50.689Z,20.63
2022-08-01T04:42:39.561Z,20.68
2022-08-01T04:45:20.335Z,20.69
2022-08-01T04:48:08.553Z,20.69
2022-08-01T04:50:49.856Z,20.81
2022-08-01T04:53:37.218Z,21.01
2022-08-01T04:56:18.313Z,20.98
2022-08-01T04:59:24.940Z,20.66
2022-08-01T05:02:09.486Z,20.45
2022-08-01T05:04:58.988Z,20.40
2022-08-01T05:07:44.826Z,20.48
2022-08-01T05:10:36.171Z,20.34
2022-08-01T05:13:17.818Z,20.39
2022-08-01T05:16:04.227Z,20.29
2022-08-01T05:18:45.400Z,20.23
2022-08-01T05:21:34.213Z,20.29
2022-08-01T05:24:24.368Z,20.16
2022-08-01T05:27:07.231Z,20.16
2022-08-01T05:29:55.329Z,20.34
2022-08-01T05:32:38.978Z,20.49
2022-08-01T05:35:48.365Z,20.50
2022-08-01T05:38:31.012Z,20.36
2022-08-01T05:41:18.301Z,20.12
2022-08-01T05:43:59.217Z,20.15
2022-08-01T05:46:47.556Z,20.18
2022-08-01T05:49:28.660Z,20.32
2022-08-01T05:52:15.426Z,20.37
2022-08-01T05:54:56.238Z,20.55
2022-08-01T05:57:46.892Z,20.73
2022-08-01T06:00:27.601Z,20.99
2022-08-01T06:03:16.366Z,21.22
2022-08-01T06:05:59.491Z,21.27
2022-08-01T06:08:47.431Z,21.35
2022-08-01T06:11:28.991Z,21.48
2022-08-01T06:14:21.494Z,21.77
2022-08-01T06:17:02.820Z,21.67
2022-08-01T06:19:51.188Z,21.74
2022-08-01T06:22:51.777Z,21.62
2022-08-01T06:25:40.354Z,21.46
2022-08-01T06:28:21.227Z,21.60
2022-08-01T06:31:13.617Z,21.81
2022-08-01T06:33:56.783Z,21.96
2022-08-01T06:36:43.345Z,22.15
2022-08-01T06:39:25.039Z,22.24
2022-08-01T06:42:15.917Z,22.31
2022-08-01T06:44:56.278Z,22.44
2022-08-01T06:47:48.868Z,22.50
2022-08-01T06:50:31.260Z,22.56
2022-08-01T06:53:21.186Z,22.65
2022-08-01T06:56:03.771Z,22.86
2022-08-01T06:58:52.508Z,22.69
2022-08-01T07:01:35.214Z,22.61
2022-08-01T07:04:23.594Z,22.61
2022-08-01T07:07:04.410Z,22.49
2022-08-01T07:09:52.366Z,22.51
2022-08-01T07:12:35.410Z,22.61
2022-08-01T07:15:27.521Z,22.83
2022-08-01T07:18:11.667Z,22.74
2022-08-01T07:20:59.525Z,22.52
2022-08-01T07:23:55.750Z,22.55
2022-08-01T07:26:52.202Z,22.68
2022-08-01T07:29:36.426Z,22.85
2022-08-01T07:32:23.451Z,23.01
2022-08-01T07:35:05.810Z,23.00
2022-08-01T07:37:57.478Z,23.05
2022-08-01T07:40:40.412Z,23.26
2022-08-01T07:43:31.415Z,23.35
2022-08-01T07:46:14.042Z,23.37
2022-08-01T07:49:03.007Z,23.33
2022-08-01T07:52:03.435Z,22.99
2022-08-01T07:54:52.662Z,22.84
2022-08-01T07:57:33.296Z,22.89
2022-08-01T08:00:21.911Z,22.99
2022-08-01T08:03:06.875Z,23.04
2022-08-01T08:05:59.727Z,23.07
2022-08-01T08:08:42.316Z,23.08
2022-08-01T08:11:32.609Z,23.14
2022-08-01T08:14:13.312Z,23.11
2022-08-01T08:17:02.600Z,23.11
2022-08-01T08:19:46.690Z,23.15
2022-08-01T08:22:41.307Z,23.22
2022-08-01T08:25:30.681Z,23.32
2022-08-01T08:28:11.492Z,23.39
2022-08-01T08:31:03.214Z,23.50
2022-08-01T08:33:44.448Z,23.72
2022-08-01T08:36:32.421Z,23.90
2022-08-01T08:39:14.479Z,24.09
2022-08-01T08:42:09.269Z,24.25
2022-08-01T08:44:51.345Z,24.37
2022-08-01T08:47:43.570Z,24.53
2022-08-01T08:50:24.527Z,24.54
2022-08-01T08:53:18.280Z,24.54
2022-08-01T08:56:02.818Z,24.63
2022-08-01T08:58:53.000Z,24.79
2022-08-01T09:01:36.316Z,24.93
2022-08-01T09:04:27.141Z,25.14
2022-08-01T09:07:09.811Z,25.33
2022-08-01T09:10:00.520Z,25.83
2022-08-01T09:12:42.695Z,26.28
2022-08-01T09:15:46.714Z,26.49
2022-08-01T09:18:35.125Z,26.41
2022-08-01T09:21:25.767Z,26.37
2022-08-01T09:24:30.937Z,26.21
2022-08-01T09:27:24.374Z,26.15
2022-08-01T09:30:26.168Z,26.08
2022-08-01T09:33:21.867Z,26.07
2022-08-01T09:36:05.467Z,26.05
2022-08-01T09:38:53.465Z,26.12
2022-08-01T09:41:40.241Z,26.08
2022-08-01T09:44:55.132Z,26.09
2022-08-01T09:47:46.541Z,26.24
2022-08-01T09:50:47.061Z,26.50
2022-08-01T09:53:31.003Z,26.66
2022-08-01T09:56:20.379Z,26.76
2022-08-01T09:59:06.867Z,26.93
2022-08-01T10:01:56.739Z,27.03
2022-08-01T10:04:38.400Z,27.21
2022-08-01T10:07:27.680Z,27.37
2022-08-01T10:10:23.511Z,27.27
2022-08-01T10:13:17.371Z,27.07
2022-08-01T10:15:58.625Z,27.12
2022-08-01T10:18:50.188Z,27.14
2022-08-01T10:21:35.616Z,27.07
2022-08-01T10:24:47.440Z,26.93
2022-08-01T10:27:38.406Z,26.92
2022-08-01T10:30:29.759Z,26.92
2022-08-01T10:33:19.917Z,26.97
2022-08-01T10:36:21.394Z,27.00
2022-08-01T10:39:05.366Z,27.00
2022-08-01T10:41:54.389Z,26.70
2022-08-01T10:44:38.659Z,26.42
2022-08-01T10:47:49.735Z,26.03
2022-08-01T10:50:43.317Z,25.83
2022-08-01T10:53:42.938Z,25.85
2022-08-01T10:56:48.768Z,25.95
2022-08-01T10:59:50.026Z,26.20
2022-08-01T11:02:45.692Z,26.42
2022-08-01T11:05:30.843Z,26.78
2022-08-01T11:08:29.512Z,27.14
2022-08-01T11:11:12.410Z,27.39
2022-08-01T11:14:16.445Z,27.82
2022-08-01T11:16:59.392Z,27.85
2022-08-01T11:20:31.642Z,27.98
2022-08-01T11:23:25.471Z,28.55
2022-08-01T11:26:17.634Z,28.96
2022-08-01T11:29:22.580Z,29.48
2022-08-01T11:32:42.430Z,29.80
2022-08-01T11:35:34.448Z,29.92
2022-08-01T11:38:35.097Z,29.98
2022-08-01T11:41:18.430Z,30.27
2022-08-01T11:44:16.632Z,30.27
2022-08-01T11:47:10.751Z,30.13
2022-08-01T11:50:02.648Z,29.68
2022-08-01T11:52:47.246Z,29.30
2022-08-01T11:55:36.571Z,29.28
2022-08-01T11:58:22.015Z,29.57
2022-08-01T12:01:15.810Z,30.16
2022-08-01T12:07:20.618Z,30.87
2022-08-01T12:10:19.475Z,31.09
2022-08-01T12:13:13.762Z,31.17
2022-08-01T12:15:56.912Z,31.09
2022-08-01T12:18:50.610Z,30.87
2022-08-01T12:21:32.210Z,30.49
2022-08-01T12:24:36.440Z,30.01
2022-08-01T12:27:34.634Z,29.63
2022-08-01T12:30:17.643Z,29.34
2022-08-01T12:33:06.516Z,28.84
2022-08-01T12:35:49.123Z,29.01
2022-08-01T12:38:41.963Z,29.36
2022-08-01T12:41:22.608Z,29.42
2022-08-01T12:44:09.482Z,29.56
2022-08-01T12:46:52.776Z,29.75
2022-08-01T12:49:43.473Z,29.76
2022-08-01T12:52:26.805Z,29.73
2022-08-01T12:55:33.914Z,29.44
2022-08-01T12:58:18.121Z,29.44
2022-08-01T13:01:17.933Z,29.40
2022-08-01T13:04:07.686Z,29.39
2022-08-01T13:07:01.133Z,29.54
2022-08-01T13:09:43.373Z,29.59
2022-08-01T13:12:30.857Z,29.24
2022-08-01T13:15:31.976Z,28.59
2022-08-01T13:18:39.488Z,28.48
2022-08-01T13:21:54.567Z,28.26
2022-08-01T13:24:51.771Z,28.59
2022-08-01T13:27:38.599Z,28.90
2022-08-01T13:30:34.528Z,29.03
2022-08-01T13:33:23.283Z,29.02
2022-08-01T13:36:06.496Z,28.88
2022-08-01T13:39:12.098Z,28.68
2022-08-01T13:41:54.663Z,28.62
2022-08-01T13:44:47.007Z,28.63
2022-08-01T13:47:31.635Z,28.75
2022-08-01T13:50:19.726Z,28.58
2022-08-01T13:53:01.688Z,28.55
2022-08-01T13:55:50.692Z,28.32
2022-08-01T13:58:31.631Z,28.45
2022-08-01T14:01:23.851Z,28.60
2022-08-01T14:04:06.927Z,28.82
2022-08-01T14:06:58.686Z,28.75
2022-08-01T14:09:45.033Z,28.61
2022-08-01T14:12:50.945Z,28.38
2022-08-01T14:15:38.656Z,28.27
2022-08-01T14:18:30.221Z,27.84
2022-08-01T14:21:11.908Z,27.43
2022-08-01T14:23:59.619Z,27.29
2022-08-01T14:26:40.914Z,27.15
2022-08-01T14:30:01.175Z,27.25
2022-08-01T14:32:29.545Z,27.17
2022-08-01T14:35:16.733Z,27.19
2022-08-01T14:37:58.544Z,27.24
2022-08-01T14:40:52.275Z,27.15
2022-08-01T14:43:34.054Z,27.00
2022-08-01T14:46:24.642Z,26.73
2022-08-01T14:49:06.740Z,26.77
2022-08-01T14:51:54.785Z,26.80
2022-08-01T14:54:38.048Z,26.95
2022-08-01T14:57:24.670Z,27.16
2022-08-01T15:00:06.790Z,27.33
2022-08-01T15:02:55.869Z,27.26
2022-08-01T15:05:36.576Z,27.09
2022-08-01T15:08:30.999Z,27.01
2022-08-01T15:11:11.569Z,27.09
2022-08-01T15:14:18.187Z,27.08
2022-08-01T15:16:58.958Z,27.14
2022-08-01T15:19:46.745Z,27.12
2022-08-01T15:22:29.587Z,27.01
2022-08-01T15:25:25.629Z,26.83
2022-08-01T15:28:27.583Z,26.71
2022-08-01T15:31:13.795Z,26.64
2022-08-01T15:34:05.581Z,26.67
2022-08-01T15:36:48.582Z,26.58
2022-08-01T15:39:35.939Z,26.59
2022-08-01T15:42:20.134Z,26.69
2022-08-01T15:45:37.483Z,26.81
2022-08-01T15:48:16.778Z,26.75
2022-08-01T15:51:03.602Z,26.67
2022-08-01T15:53:46.636Z,26.61
2022-08-01T15:56:37.724Z,26.65
2022-08-01T15:59:23.155Z,26.68
2022-08-01T16:02:10.270Z,26.63
2022-08-01T16:04:51.923Z,26.68
2022-08-01T16:07:59.710Z,26.76
2022-08-01T16:10:43.780Z,26.87
2022-08-01T16:13:32.046Z,26.84
2022-08-01T16:16:16.783Z,26.85
2022-08-01T16:19:05.970Z,26.90
2022-08-01T16:21:48.095Z,27.00
2022-08-01T16:24:38.004Z,27.08
2022-08-01T16:27:18.831Z,27.18
2022-08-01T16:30:07.874Z,27.18
2022-08-01T16:32:53.141Z,27.12
2022-08-01T16:35:46.902Z,27.02
2022-08-01T16:38:30.789Z,26.99
2022-08-01T16:41:21.670Z,27.14
2022-08-01T16:44:02.935Z,27.17
2022-08-01T16:46:51.380Z,27.08
2022-08-01T16:49:33.299Z,27.06
2022-08-01T16:52:28.545Z,27.14
2022-08-01T16:55:11.720Z,27.27
2022-08-01T16:57:59.645Z,27.33
2022-08-01T17:00:43.177Z,27.21
2022-08-01T17:03:51.540Z,27.05
2022-08-01T17:06:34.020Z,27.06
2022-08-01T17:09:21.642Z,26.94
2022-08-01T17:12:02.726Z,26.91
2022-08-01T17:14:55.050Z,26.94
2022-08-01T17:17:36.574Z,26.85
2022-08-01T17:20:23.645Z,26.86
2022-08-01T17:23:04.911Z,26.82
2022-08-01T17:25:53.638Z,26.75
2022-08-01T17:28:36.107Z,26.74
2022-08-01T17:31:24.039Z,26.65
2022-08-01T17:34:04.939Z,26.63
2022-08-01T17:36:55.418Z,26.54
2022-08-01T17:39:40.042Z,26.35
2022-08-01T17:42:26.668Z,26.32
2022-08-01T17:45:07.762Z,26.18
2022-08-01T17:48:22.663Z,26.02
2022-08-01T17:51:04.228Z,25.93
2022-08-01T17:53:57.255Z,25.87
2022-08-01T17:56:42.997Z,25.82
2022-08-01T17:59:33.651Z,25.81
2022-08-01T18:02:18.317Z,25.63
2022-08-01T18:05:09.631Z,25.50
2022-08-01T18:08:01.033Z,25.29
2022-08-01T18:10:49.656Z,25.24
2022-08-01T18:13:32.461Z,25.22
2022-08-01T18:16:20.051Z,25.19
2022-08-01T18:19:00.817Z,25.15
2022-08-01T18:21:51.571Z,25.00
2022-08-01T18:24:40.794Z,24.72
2022-08-01T18:27:21.681Z,24.62
2022-08-01T18:30:09.861Z,24.59
2022-08-01T18:32:51.059Z,24.60
2022-08-01T18:35:52.557Z,24.54
2022-08-01T18:38:39.058Z,24.57
2022-08-01T18:41:30.808Z,24.35
2022-08-01T18:44:14.464Z,24.13
2022-08-01T18:47:05.313Z,24.04
2022-08-01T18:49:49.717Z,23.98
2022-08-01T18:52:37.027Z,23.93
2022-08-01T18:55:18.072Z,23.92
2022-08-01T18:58:07.279Z,23.83
2022-08-01T19:00:50.057Z,23.74
2022-08-01T19:03:42.529Z,23.58
2022-08-01T19:06:24.152Z,23.38
2022-08-01T19:09:20.886Z,23.32
2022-08-01T19:12:02.528Z,23.29
2022-08-01T19:14:50.810Z,23.41
2022-08-01T19:17:35.551Z,23.36
2022-08-01T19:20:24.617Z,23.35
2022-08-01T19:23:05.707Z,23.24
2022-08-01T19:26:04.045Z,23.21
2022-08-01T19:28:54.120Z,23.18
2022-08-01T19:31:48.972Z,23.01
2022-08-01T19:34:31.108Z,22.90
2022-08-01T19:37:22.945Z,22.76
2022-08-01T19:40:08.091Z,22.55
2022-08-01T19:42:57.688Z,22.44
2022-08-01T19:45:41.496Z,22.28
2022-08-01T19:48:30.825Z,22.26
2022-08-01T19:51:19.869Z,22.16
2022-08-01T19:54:12.964Z,22.02
2022-08-01T19:56:56.564Z,21.98
2022-08-01T19:59:43.823Z,21.96
2022-08-01T20:02:30.704Z,22.02
2022-08-01T20:05:22.886Z,21.99
2022-08-01T20:08:05.775Z,21.96
2022-08-01T20:10:53.877Z,21.89
2022-08-01T20:13:39.222Z,21.80
2022-08-01T20:16:29.369Z,21.76
2022-08-01T20:19:09.772Z,21.76
2022-08-01T20:22:11.640Z,21.67
2022-08-01T20:25:11.141Z,21.64
2022-08-01T20:28:00.690Z,21.45
2022-08-01T20:30:43.147Z,21.36
2022-08-01T20:33:30.894Z,21.37
2022-08-01T20:36:24.993Z,21.28
2022-08-01T20:39:15.227Z,21.34
2022-08-01T20:41:59.593Z,21.24
2022-08-01T20:44:49.839Z,21.13
2022-08-01T20:47:33.871Z,21.12
2022-08-01T20:50:54.373Z,21.09
2022-08-01T20:53:38.523Z,21.05
2022-08-01T20:56:31.888Z,21.03
2022-08-01T20:59:39.806Z,20.94
2022-08-01T21:02:57.179Z,20.93
2022-08-01T21:05:41.110Z,20.98
2022-08-01T21:08:30.857Z,20.99
2022-08-01T21:11:14.522Z,20.88
2022-08-01T21:14:10.527Z,20.83
2022-08-01T21:16:57.791Z,20.65
2022-08-01T21:19:51.912Z,20.60
2022-08-01T21:22:44.797Z,20.60
2022-08-01T21:25:43.783Z,20.64
2022-08-01T21:28:33.180Z,20.43
2022-08-01T21:31:15.925Z,20.28
2022-08-01T21:34:14.772Z,20.22
2022-08-01T21:37:01.976Z,20.53
2022-08-01T21:39:45.576Z,20.47
2022-08-01T21:42:34.884Z,20.31
2022-08-01T21:48:37.147Z,20.21
2022-08-01T21:51:33.540Z,20.24
2022-08-01T21:54:30.910Z,20.32
2022-08-01T21:57:47.826Z,20.14
2022-08-01T22:00:42.278Z,19.99
2022-08-01T22:03:42.615Z,19.93
2022-08-01T22:06:34.968Z,19.94
2022-08-01T22:09:17.432Z,19.97
2022-08-01T22:12:17.558Z,20.02
2022-08-01T22:15:03.623Z,19.87
2022-08-01T22:17:54.946Z,19.75
2022-08-01T22:20:35.811Z,19.87
2022-08-01T22:23:25.086Z,20.07
2022-08-01T22:26:17.569Z,19.93
2022-08-01T22:28:59.967Z,19.88
2022-08-01T22:31:47.834Z,19.74
2022-08-01T22:34:30.530Z,19.48
2022-08-01T22:37:55.899Z,19.56
2022-08-01T22:40:21.946Z,19.61
2022-08-01T22:43:14.193Z,19.63
2022-08-01T22:46:04.898Z,19.56
2022-08-01T22:49:00.647Z,19.72
2022-08-01T22:51:54.621Z,19.85
2022-08-01T22:54:48.222Z,19.81
2022-08-01T22:57:38.485Z,19.59
2022-08-01T23:00:25.846Z,19.47
2022-08-01T23:03:31.933Z,19.38
2022-08-01T23:06:42.243Z,19.40
2022-08-01T23:09:25.153Z,19.46
2022-08-01T23:12:34.265Z,19.44
2022-08-01T23:15:15.145Z,19.51
2022-08-01T23:18:05.338Z,19.55
2022-08-01T23:20:46.099Z,19.61
2022-08-01T23:23:39.842Z,19.62
2022-08-01T23:26:36.855Z,19.66
2022-08-01T23:29:23.868Z,19.70
2022-08-01T23:32:05.775Z,19.86
2022-08-01T23:34:55.863Z,19.77
2022-08-01T23:37:38.969Z,19.87
2022-08-01T23:40:27.263Z,19.74
2022-08-01T23:43:14.569Z,19.80
2022-08-01T23:46:05.605Z,19.64
2022-08-01T23:48:46.996Z,19.55
2022-08-01T23:51:33.862Z,19.54
2022-08-01T23:54:15.419Z,19.58
2022-08-01T23:57:05.880Z,19.59
2022-08-01T23:59:52.859Z,19.69
